createdAt,value
2023-12-09T00:00:23.747Z,93.50
2023-12-09T00:03:09.852Z,93.70
2023-12-09T00:05:55.946Z,93.60
2023-12-09T00:08:42.077Z,93.50
2023-12-09T00:11:27.468Z,93.60
2023-12-09T00:14:13.125Z,93.50
2023-12-09T00:16:58.503Z,93.70
2023-12-09T00:19:44.179Z,94.00
2023-12-09T00:22:30.137Z,94.10
2023-12-09T00:25:16.003Z,94.10
2023-12-09T00:28:01.631Z,94.00
2023-12-09T00:30:47.021Z,94.40
2023-12-09T00:33:32.713Z,94.60
2023-12-09T00:36:18.604Z,94.60
2023-12-09T00:39:03.985Z,94.50
2023-12-09T00:41:49.445Z,94.60
2023-12-09T00:44:34.899Z,94.50
2023-12-09T00:47:20.459Z,94.80
2023-12-09T00:50:07.106Z,94.70
2023-12-09T00:52:52.337Z,94.80
2023-12-09T00:55:37.970Z,94.80
2023-12-09T00:58:23.502Z,94.90
2023-12-09T01:01:08.933Z,94.80
2023-12-09T01:03:54.886Z,94.60
2023-12-09T01:06:40.605Z,94.50
2023-12-09T01:09:26.885Z,94.40
2023-12-09T01:12:12.296Z,94.50
2023-12-09T01:14:57.898Z,94.50
2023-12-09T01:17:44.113Z,94.30
2023-12-09T01:20:29.976Z,94.00
2023-12-09T01:23:15.566Z,93.80
2023-12-09T01:26:01.306Z,93.70
2023-12-09T01:28:46.841Z,93.80
2023-12-09T01:31:32.873Z,93.80
2023-12-09T01:34:18.511Z,93.80
2023-12-09T01:37:04.178Z,93.70
2023-12-09T01:39:49.647Z,94.10
2023-12-09T01:42:35.050Z,94.20
2023-12-09T01:45:21.633Z,94.20
2023-12-09T01:48:09.365Z,94.30
2023-12-09T01:50:54.804Z,94.40
2023-12-09T01:53:40.135Z,94.30
2023-12-09T01:56:26.045Z,94.30
2023-12-09T01:59:11.587Z,94.20
2023-12-09T02:01:57.787Z,94.00
2023-12-09T02:04:43.223Z,94.00
2023-12-09T02:07:28.981Z,94.00
2023-12-09T02:10:14.572Z,93.90
2023-12-09T02:13:24.300Z,94.00
2023-12-09T02:16:18.469Z,93.90
2023-12-09T02:19:08.538Z,93.90
2023-12-09T02:22:03.033Z,93.70
2023-12-09T02:24:48.526Z,94.10
2023-12-09T02:27:45.154Z,94.10
2023-12-09T02:30:41.037Z,94.00
2023-12-09T02:33:27.472Z,93.80
2023-12-09T02:36:20.682Z,93.70
2023-12-09T02:39:08.528Z,93.80
2023-12-09T02:41:57.326Z,93.90
2023-12-09T02:44:43.815Z,94.10
2023-12-09T02:47:29.469Z,94.00
2023-12-09T02:50:15.350Z,94.00
2023-12-09T02:53:00.825Z,94.50
2023-12-09T02:55:46.211Z,94.60
2023-12-09T02:58:31.611Z,94.60
2023-12-09T03:01:17.031Z,94.70
2023-12-09T03:04:02.856Z,94.70
2023-12-09T03:06:48.840Z,94.70
2023-12-09T03:09:34.182Z,94.60
2023-12-09T03:12:19.586Z,94.40
2023-12-09T03:15:06.792Z,94.00
2023-12-09T03:17:52.855Z,93.70
2023-12-09T03:20:38.377Z,93.40
2023-12-09T03:23:23.664Z,93.00
2023-12-09T03:26:20.119Z,92.90
2023-12-09T03:29:05.759Z,93.20
2023-12-09T03:31:51.085Z,93.20
2023-12-09T03:34:36.609Z,93.20
2023-12-09T03:37:22.435Z,93.10
2023-12-09T03:40:11.248Z,93.10
2023-12-09T03:42:56.608Z,92.70
2023-12-09T03:45:42.414Z,92.30
2023-12-09T03:48:30.291Z,92.20
2023-12-09T03:51:16.082Z,92.00
2023-12-09T03:54:02.192Z,92.10
2023-12-09T03:56:47.496Z,92.00
2023-12-09T03:59:32.733Z,91.80
2023-12-09T04:02:19.644Z,91.90
2023-12-09T04:05:07.408Z,91.90
2023-12-09T04:07:52.792Z,91.90
2023-12-09T04:10:38.318Z,92.00
2023-12-09T04:13:23.589Z,92.10
2023-12-09T04:16:09.243Z,91.70
2023-12-09T04:18:54.892Z,91.70
2023-12-09T04:21:40.219Z,91.80
2023-12-09T04:24:26.093Z,91.70
2023-12-09T04:27:11.444Z,91.70
2023-12-09T04:29:56.888Z,91.60
2023-12-09T04:32:42.614Z,91.40
2023-12-09T04:35:28.247Z,91.00
2023-12-09T04:38:13.917Z,91.10
2023-12-09T04:40:59.490Z,91.20
2023-12-09T04:43:44.962Z,91.50
2023-12-09T04:46:31.109Z,91.40
2023-12-09T04:49:16.801Z,91.10
2023-12-09T04:52:02.652Z,91.00
2023-12-09T04:54:48.327Z,90.80
2023-12-09T04:57:33.810Z,90.80
2023-12-09T05:00:19.413Z,91.30
2023-12-09T05:03:04.963Z,91.10
2023-12-09T05:05:51.025Z,91.20
2023-12-09T05:08:36.497Z,90.70
2023-12-09T05:11:21.766Z,90.30
2023-12-09T05:14:07.331Z,90.80
2023-12-09T05:16:52.940Z,91.10
2023-12-09T05:19:38.670Z,91.50
2023-12-09T05:22:24.297Z,91.80
2023-12-09T05:25:10.419Z,91.90
2023-12-09T05:27:56.171Z,91.80
2023-12-09T05:30:43.060Z,91.70
2023-12-09T05:33:29.080Z,91.60
2023-12-09T05:36:15.294Z,91.40
2023-12-09T05:39:00.811Z,91.50
2023-12-09T05:41:46.143Z,91.70
2023-12-09T05:44:31.635Z,91.80
2023-12-09T05:47:17.060Z,91.40
2023-12-09T05:50:02.429Z,91.50
2023-12-09T05:52:47.690Z,91.10
2023-12-09T05:55:33.054Z,91.10
2023-12-09T05:58:19.371Z,91.00
2023-12-09T06:01:04.997Z,90.80
2023-12-09T06:03:50.334Z,90.80
2023-12-09T06:06:35.951Z,91.60
2023-12-09T06:09:21.778Z,91.40
2023-12-09T06:12:07.542Z,91.10
2023-12-09T06:14:54.472Z,91.10
2023-12-09T06:17:40.445Z,91.10
2023-12-09T06:20:26.081Z,90.90
2023-12-09T06:23:11.718Z,92.00
2023-12-09T06:25:57.240Z,92.50
2023-12-09T06:28:42.909Z,92.70
2023-12-09T06:31:28.362Z,92.70
2023-12-09T06:34:13.941Z,92.90
2023-12-09T06:36:59.774Z,93.20
2023-12-09T06:39:45.606Z,93.50
2023-12-09T06:42:31.880Z,93.70
2023-12-09T06:45:18.041Z,93.60
2023-12-09T06:48:04.236Z,93.10
2023-12-09T06:50:50.059Z,92.70
2023-12-09T06:53:39.876Z,92.50
2023-12-09T06:56:25.456Z,92.00
2023-12-09T06:59:11.488Z,91.70
2023-12-09T07:01:58.009Z,91.40
2023-12-09T07:04:43.527Z,91.20
2023-12-09T07:07:29.318Z,91.10
2023-12-09T07:10:14.853Z,91.00
2023-12-09T07:13:00.607Z,91.10
2023-12-09T07:15:46.023Z,90.50
2023-12-09T07:18:31.886Z,90.30
2023-12-09T07:21:18.006Z,90.20
2023-12-09T07:24:05.164Z,90.10
2023-12-09T07:26:52.166Z,89.50
2023-12-09T07:29:37.608Z,89.90
2023-12-09T07:32:23.383Z,89.30
2023-12-09T07:35:09.302Z,88.90
2023-12-09T07:37:56.178Z,89.00
2023-12-09T07:40:42.168Z,88.90
2023-12-09T07:43:27.763Z,89.40
2023-12-09T07:46:13.451Z,88.40
2023-12-09T07:48:58.824Z,87.90
2023-12-09T07:51:44.403Z,88.30
2023-12-09T07:54:29.928Z,87.30
2023-12-09T07:57:15.607Z,87.50
2023-12-09T08:00:01.661Z,87.90
2023-12-09T08:02:47.402Z,87.90
2023-12-09T08:05:35.807Z,87.40
2023-12-09T08:08:21.716Z,87.10
2023-12-09T08:11:07.533Z,86.50
2023-12-09T08:13:53.018Z,86.00
2023-12-09T08:16:38.410Z,85.10
2023-12-09T08:19:24.347Z,84.60
2023-12-09T08:22:10.217Z,85.00
2023-12-09T08:24:55.557Z,85.00
2023-12-09T08:27:40.915Z,84.60
2023-12-09T08:30:26.374Z,84.20
2023-12-09T08:33:12.049Z,84.00
2023-12-09T08:35:57.939Z,83.30
2023-12-09T08:38:43.175Z,82.60
2023-12-09T08:41:30.785Z,82.70
2023-12-09T08:44:16.491Z,82.30
2023-12-09T08:47:01.971Z,82.40
2023-12-09T08:49:47.379Z,81.70
2023-12-09T08:52:33.751Z,81.20
2023-12-09T08:55:19.374Z,81.20
2023-12-09T08:58:05.047Z,81.10
2023-12-09T09:00:53.277Z,81.00
2023-12-09T09:03:38.943Z,81.70
2023-12-09T09:06:24.312Z,82.40
2023-12-09T09:09:12.811Z,82.00
2023-12-09T09:11:58.663Z,81.50
2023-12-09T09:14:44.922Z,81.00
2023-12-09T09:17:30.248Z,80.60
2023-12-09T09:20:16.180Z,81.10
2023-12-09T09:23:01.843Z,80.20
2023-12-09T09:25:47.459Z,80.50
2023-12-09T09:28:33.284Z,80.40
2023-12-09T09:31:18.849Z,80.10
2023-12-09T09:34:04.748Z,79.20
2023-12-09T09:36:50.483Z,79.20
2023-12-09T09:39:36.230Z,79.70
2023-12-09T09:42:45.361Z,79.90
2023-12-09T09:45:32.469Z,79.20
2023-12-09T09:48:19.270Z,78.80
2023-12-09T09:51:08.596Z,78.20
2023-12-09T09:54:22.100Z,77.50
2023-12-09T09:57:09.189Z,76.70
2023-12-09T09:59:57.348Z,76.00
2023-12-09T10:02:48.870Z,75.40
2023-12-09T10:05:34.173Z,75.20
2023-12-09T10:08:19.852Z,75.00
2023-12-09T10:11:05.307Z,74.80
2023-12-09T10:13:51.159Z,75.30
2023-12-09T10:16:37.014Z,75.40
2023-12-09T10:19:22.765Z,75.40
2023-12-09T10:22:08.498Z,74.90
2023-12-09T10:24:55.743Z,74.20
2023-12-09T10:27:42.938Z,74.80
2023-12-09T10:30:28.797Z,74.90
2023-12-09T10:33:16.518Z,75.20
2023-12-09T10:36:03.003Z,75.40
2023-12-09T10:38:48.516Z,74.90
2023-12-09T10:41:33.840Z,74.80
2023-12-09T10:44:19.677Z,74.70
2023-12-09T10:47:05.806Z,74.70
2023-12-09T10:49:52.747Z,74.20
2023-12-09T10:52:39.407Z,74.10
2023-12-09T10:55:25.296Z,73.40
2023-12-09T10:58:13.231Z,73.20
2023-12-09T11:00:59.164Z,72.40
2023-12-09T11:03:44.752Z,72.60
2023-12-09T11:06:38.863Z,72.60
2023-12-09T11:09:24.878Z,71.90
2023-12-09T11:12:10.395Z,70.60
2023-12-09T11:14:56.459Z,69.40
2023-12-09T11:17:45.321Z,69.10
2023-12-09T11:20:31.166Z,69.20
2023-12-09T11:23:16.850Z,69.00
2023-12-09T11:26:02.432Z,68.40
2023-12-09T11:29:08.496Z,70.20
2023-12-09T11:31:54.576Z,70.50
2023-12-09T11:34:40.525Z,70.60
2023-12-09T11:37:31.244Z,72.30
2023-12-09T11:40:17.045Z,71.30
2023-12-09T11:43:04.564Z,72.40
2023-12-09T11:45:51.564Z,73.70
2023-12-09T11:48:37.720Z,73.90
2023-12-09T11:51:23.183Z,73.70
2023-12-09T11:54:10.673Z,72.80
2023-12-09T11:56:56.649Z,71.20
2023-12-09T11:59:41.915Z,71.60
2023-12-09T12:02:28.008Z,72.60
2023-12-09T12:05:13.683Z,72.80
2023-12-09T12:07:59.623Z,72.70
2023-12-09T12:10:45.113Z,72.90
2023-12-09T12:13:31.194Z,72.60
2023-12-09T12:16:17.271Z,73.40
2023-12-09T12:19:02.795Z,71.60
2023-12-09T12:21:57.582Z,71.90
2023-12-09T12:24:46.454Z,71.60
2023-12-09T12:27:36.970Z,71.00
2023-12-09T12:30:24.410Z,71.80
2023-12-09T12:33:10.247Z,72.00
2023-12-09T12:35:56.562Z,72.20
2023-12-09T12:38:42.219Z,72.30
2023-12-09T12:41:27.672Z,72.80
2023-12-09T12:44:13.077Z,73.10
2023-12-09T12:46:58.770Z,72.90
2023-12-09T12:49:44.539Z,73.80
2023-12-09T12:52:30.623Z,73.50
2023-12-09T12:55:16.275Z,73.60
2023-12-09T12:58:01.596Z,73.10
2023-12-09T13:00:50.631Z,73.90
2023-12-09T13:03:36.708Z,74.30
2023-12-09T13:06:22.330Z,74.90
2023-12-09T13:09:09.768Z,75.50
2023-12-09T13:11:55.557Z,75.60
2023-12-09T13:14:41.071Z,75.80
2023-12-09T13:17:26.800Z,75.50
2023-12-09T13:20:12.581Z,74.40
2023-12-09T13:22:58.505Z,74.90
2023-12-09T13:25:43.941Z,74.60
2023-12-09T13:28:29.527Z,73.50
2023-12-09T13:31:16.187Z,72.70
2023-12-09T13:34:02.274Z,71.90
2023-12-09T13:36:48.254Z,71.70
2023-12-09T13:39:34.563Z,71.20
2023-12-09T13:42:20.036Z,69.70
2023-12-09T13:45:07.136Z,68.80
2023-12-09T13:47:52.775Z,71.00
2023-12-09T13:50:40.857Z,73.20
2023-12-09T13:53:27.613Z,73.70
2023-12-09T13:56:12.982Z,73.80
2023-12-09T13:58:58.406Z,74.20
2023-12-09T14:01:44.227Z,74.10
2023-12-09T14:04:30.214Z,73.80
2023-12-09T14:07:16.554Z,73.30
2023-12-09T14:10:02.370Z,73.60
2023-12-09T14:12:48.919Z,74.50
2023-12-09T14:15:34.614Z,75.10
2023-12-09T14:18:20.659Z,75.30
2023-12-09T14:21:07.498Z,75.40
2023-12-09T14:23:53.302Z,75.60
2023-12-09T14:26:39.249Z,76.60
2023-12-09T14:29:25.022Z,76.70
2023-12-09T14:32:11.364Z,76.80
2023-12-09T14:34:56.845Z,77.60
2023-12-09T14:37:44.077Z,78.30
2023-12-09T14:40:29.772Z,78.10
2023-12-09T14:43:15.038Z,79.60
2023-12-09T14:46:00.634Z,79.80
2023-12-09T14:48:46.573Z,80.50
2023-12-09T14:51:40.660Z,80.50
2023-12-09T14:54:30.111Z,80.50
2023-12-09T14:57:18.324Z,80.60
2023-12-09T15:00:05.074Z,80.70
2023-12-09T15:02:50.405Z,81.40
2023-12-09T15:05:36.061Z,81.30
2023-12-09T15:08:22.140Z,81.40
2023-12-09T15:11:07.454Z,81.70
2023-12-09T15:13:52.810Z,82.40
2023-12-09T15:16:38.138Z,83.00
2023-12-09T15:19:23.660Z,82.80
2023-12-09T15:22:09.297Z,82.30
2023-12-09T15:24:54.801Z,81.80
2023-12-09T15:27:40.371Z,82.40
2023-12-09T15:30:26.030Z,81.50
2023-12-09T15:33:11.872Z,81.40
2023-12-09T15:35:58.836Z,83.30
2023-12-09T15:38:44.418Z,84.70
2023-12-09T15:41:29.852Z,84.20
2023-12-09T15:44:17.613Z,84.30
2023-12-09T15:47:03.420Z,85.70
2023-12-09T15:49:48.806Z,85.30
2023-12-09T15:52:34.315Z,84.90
2023-12-09T15:55:19.785Z,86.10
2023-12-09T15:58:05.454Z,86.10
2023-12-09T16:00:50.926Z,85.30
2023-12-09T16:03:37.716Z,85.20
2023-12-09T16:06:23.465Z,86.10
2023-12-09T16:09:09.056Z,85.50
2023-12-09T16:11:54.374Z,85.30
2023-12-09T16:14:40.235Z,86.30
2023-12-09T16:17:25.981Z,85.40
2023-12-09T16:20:12.218Z,85.50
2023-12-09T16:22:57.982Z,85.80
2023-12-09T16:25:43.446Z,85.40
2023-12-09T16:28:28.803Z,85.30
2023-12-09T16:31:16.422Z,85.00
2023-12-09T16:34:03.991Z,85.60
2023-12-09T16:36:49.718Z,85.30
2023-12-09T16:39:35.444Z,84.90
2023-12-09T16:42:21.533Z,84.50
2023-12-09T16:45:09.970Z,83.90
2023-12-09T16:47:56.452Z,83.80
2023-12-09T16:50:42.396Z,83.80
2023-12-09T16:53:28.267Z,83.80
2023-12-09T16:56:13.637Z,83.80
2023-12-09T16:58:59.288Z,84.30
2023-12-09T17:01:44.852Z,83.90
2023-12-09T17:04:30.302Z,84.10
2023-12-09T17:07:16.049Z,83.20
2023-12-09T17:10:01.539Z,82.80
2023-12-09T17:12:48.475Z,83.50
2023-12-09T17:15:33.947Z,84.50
2023-12-09T17:18:20.340Z,85.00
2023-12-09T17:21:05.911Z,84.90
2023-12-09T17:23:51.356Z,85.10
2023-12-09T17:26:36.701Z,85.30
2023-12-09T17:29:22.101Z,85.10
2023-12-09T17:32:07.471Z,84.90
2023-12-09T17:34:53.092Z,84.60
2023-12-09T17:37:38.628Z,84.40
2023-12-09T17:40:23.931Z,84.70
2023-12-09T17:43:09.297Z,85.20
2023-12-09T17:45:55.159Z,85.50
2023-12-09T17:48:41.818Z,86.00
2023-12-09T17:51:27.705Z,86.00
2023-12-09T17:54:13.244Z,86.00
2023-12-09T17:56:58.526Z,85.90
2023-12-09T17:59:43.877Z,86.30
2023-12-09T18:02:29.344Z,86.80
2023-12-09T18:05:15.142Z,86.70
2023-12-09T18:08:00.491Z,87.10
2023-12-09T18:10:45.904Z,87.80
2023-12-09T18:13:31.165Z,87.60
2023-12-09T18:16:18.101Z,88.10
2023-12-09T18:19:04.579Z,88.30
2023-12-09T18:21:50.496Z,88.20
2023-12-09T18:24:36.336Z,88.20
2023-12-09T18:27:22.847Z,88.60
2023-12-09T18:30:11.307Z,88.60
2023-12-09T18:32:57.105Z,88.60
2023-12-09T18:35:42.896Z,88.50
2023-12-09T18:38:29.075Z,88.10
2023-12-09T18:41:15.436Z,87.90
2023-12-09T18:44:01.137Z,87.60
2023-12-09T18:46:46.535Z,87.60
2023-12-09T18:49:32.449Z,87.30
2023-12-09T18:52:18.396Z,87.10
2023-12-09T18:55:04.869Z,87.40
2023-12-09T18:57:50.860Z,87.30
2023-12-09T19:00:37.195Z,86.90
2023-12-09T19:03:24.684Z,86.60
2023-12-09T19:06:11.151Z,86.40
2023-12-09T19:08:56.437Z,86.90
2023-12-09T19:11:42.152Z,86.70
2023-12-09T19:14:27.441Z,87.40
2023-12-09T19:17:13.132Z,87.00
2023-12-09T19:19:58.850Z,86.90
2023-12-09T19:22:44.563Z,87.10
2023-12-09T19:25:29.846Z,87.30
2023-12-09T19:28:15.281Z,87.80
2023-12-09T19:31:00.649Z,87.90
2023-12-09T19:33:46.778Z,87.50
2023-12-09T19:36:32.669Z,87.40
2023-12-09T19:39:18.142Z,88.20
2023-12-09T19:42:03.684Z,89.00
2023-12-09T19:44:49.107Z,89.40
2023-12-09T19:47:34.698Z,89.50
2023-12-09T19:50:22.915Z,89.60
2023-12-09T19:53:09.917Z,89.80
2023-12-09T19:55:56.542Z,90.10
2023-12-09T19:58:42.323Z,90.50
2023-12-09T20:01:28.007Z,90.50
2023-12-09T20:04:13.331Z,90.50
2023-12-09T20:06:59.121Z,90.30
2023-12-09T20:09:44.500Z,90.20
2023-12-09T20:12:30.754Z,90.00
2023-12-09T20:15:17.055Z,89.50
2023-12-09T20:18:03.024Z,93.60
2023-12-09T20:20:49.082Z,94.20
2023-12-09T20:23:34.428Z,93.70
2023-12-09T20:26:19.896Z,93.20
2023-12-09T20:29:05.631Z,92.30
2023-12-09T20:31:51.361Z,92.00
2023-12-09T20:34:36.848Z,92.00
2023-12-09T20:37:22.668Z,92.50
2023-12-09T20:40:08.949Z,92.50
2023-12-09T20:42:54.525Z,92.40
2023-12-09T20:45:40.435Z,93.00
2023-12-09T20:48:26.268Z,92.60
2023-12-09T20:51:11.977Z,92.70
2023-12-09T20:53:57.266Z,93.00
2023-12-09T20:56:42.745Z,93.00
2023-12-09T20:59:28.318Z,92.90
2023-12-09T21:02:14.090Z,92.40
2023-12-09T21:05:00.969Z,92.00
2023-12-09T21:07:46.466Z,91.50
2023-12-09T21:10:31.979Z,91.70
2023-12-09T21:13:17.335Z,92.00
2023-12-09T21:16:03.702Z,91.90
2023-12-09T21:18:49.399Z,91.80
2023-12-09T21:21:35.017Z,92.00
2023-12-09T21:24:20.373Z,91.80
2023-12-09T21:27:05.799Z,91.60
2023-12-09T21:29:51.344Z,91.50
2023-12-09T21:32:36.938Z,91.00
2023-12-09T21:35:23.214Z,90.60
2023-12-09T21:38:08.827Z,91.10
2023-12-09T21:40:54.532Z,90.70
2023-12-09T21:43:40.070Z,89.90
2023-12-09T21:46:25.683Z,89.60
2023-12-09T21:49:11.478Z,90.20
2023-12-09T21:51:58.530Z,89.60
2023-12-09T21:54:46.037Z,89.80
2023-12-09T21:57:32.609Z,90.20
2023-12-09T22:00:18.613Z,90.40
2023-12-09T22:03:04.299Z,89.30
2023-12-09T22:05:49.685Z,88.60
2023-12-09T22:08:34.877Z,88.10
2023-12-09T22:11:21.360Z,88.40
2023-12-09T22:14:06.952Z,87.80
2023-12-09T22:16:53.292Z,88.00
2023-12-09T22:19:39.031Z,88.30
2023-12-09T22:22:24.971Z,88.30
2023-12-09T22:25:13.577Z,89.00
2023-12-09T22:27:59.205Z,88.90
2023-12-09T22:30:44.774Z,88.70
2023-12-09T22:33:30.162Z,88.50
2023-12-09T22:36:21.672Z,88.70
2023-12-09T22:39:12.933Z,89.30
2023-12-09T22:41:58.796Z,89.50
2023-12-09T22:44:44.555Z,89.30
2023-12-09T22:47:31.171Z,89.20
2023-12-09T22:50:17.186Z,89.30
2023-12-09T22:53:02.941Z,88.60
2023-12-09T22:55:48.253Z,88.50
2023-12-09T22:58:33.583Z,88.20
2023-12-09T23:01:29.059Z,88.30
2023-12-09T23:04:14.795Z,88.80
2023-12-09T23:07:00.337Z,88.70
2023-12-09T23:09:46.083Z,88.70
2023-12-09T23:12:32.192Z,88.40
2023-12-09T23:15:17.887Z,89.70
2023-12-09T23:18:03.553Z,89.90
2023-12-09T23:20:48.912Z,90.30
2023-12-09T23:23:35.287Z,89.90
2023-12-09T23:26:20.819Z,90.30
2023-12-09T23:29:08.164Z,89.90
2023-12-09T23:31:53.523Z,90.00
2023-12-09T23:34:38.993Z,89.30
2023-12-09T23:37:24.755Z,88.70
2023-12-09T23:40:10.981Z,88.00
2023-12-09T23:42:56.927Z,87.90
2023-12-09T23:45:43.892Z,87.30
2023-12-09T23:48:29.796Z,87.40
2023-12-09T23:51:16.298Z,87.00
2023-12-09T23:54:01.756Z,86.50
2023-12-09T23:56:47.317Z,86.20
2023-12-09T23:59:33.146Z,86.00
